This is the latest recevied weather packets stored in our database for station/object NC0S. If no packets are shown the sender has not sent any weather packets the latest 10 day(s).
| Time | Temp. | Humidity | Pressure | Rain* | Wind** | Luminosity | Snow |
|---|---|---|---|---|---|---|---|
| 1777252246 | 17.22° C | 90% | 1006.3 hPa | 0 mm | - | - | - |
| 1777247447 | 17.22° C | 92% | 1006.7 hPa | 0 mm | - | - | - |
| 1777240267 | 19.44° C | 86% | 1007.1 hPa | 2.29 mm | - | - | - |
| 1777234266 | 22.22° C | 67% | 1008 hPa | 0 mm | - | - | - |
| 1777231246 | 22.78° C | 63% | 1008.1 hPa | 0 mm | - | - | - |
| 1777230646 | 23.33° C | 64% | 1008.1 hPa | 0 mm | - | - | - |
| 1777229466 | 23.33° C | 62% | 1008.5 hPa | 0 mm | - | - | - |
| 1777225867 | 23.33° C | 60% | 1010 hPa | 0 mm | - | - | - |
| 1777215053 | 20.56° C | 67% | 1011.2 hPa | 0 mm | - | - | - |
| 1777213854 | 19.44° C | 67% | 1011.4 hPa | 0 mm | - | - | - |
| 1777206654 | 15° C | 79% | 1012.1 hPa | 0 mm | - | - | - |
| 1777204853 | 13.89° C | 83% | 1011.5 hPa | 0 mm | - | - | - |
| 1777198854 | 12.78° C | 81% | 1011.1 hPa | 0 mm | - | - | - |
| 1777195853 | 13.33° C | 79% | 1010.6 hPa | 0 mm | - | - | - |
| 1777194654 | 13.89° C | 76% | 1010.6 hPa | 0 mm | - | - | - |
| 1777194054 | 13.89° C | 76% | 1010.8 hPa | 0 mm | - | - | - |
| 1777192874 | 13.89° C | 76% | 1010.8 hPa | 0 mm | - | - | - |
| 1777192253 | 14.44° C | 75% | 1010.8 hPa | 0 mm | - | - | - |
| 1777191053 | 15° C | 72% | 1010.9 hPa | 0 mm | - | - | - |
| 1777181453 | 18.89° C | 56% | 1010.7 hPa | 0 mm | - | - | - |
| 1777180853 | 19.44° C | 55% | 1010.6 hPa | 0 mm | - | - | - |
| 1777178453 | 19.44° C | 56% | 1010 hPa | 0 mm | - | - | - |
| 1777170653 | 20.56° C | 59% | 1009.8 hPa | 0 mm | - | - | - |
| 1777166454 | 20.56° C | 56% | 1009.5 hPa | 0 mm | - | - | - |
| 1777159874 | 22.78° C | 52% | 1008.4 hPa | 0 mm | - | - | - |
* Rain latest hour (hover to see other rain measurements)
** Current wind speed in m/s (hover to see current wind gust speed)